FranceFixed distance
Trail du Cirque du Fer à Cheval - 46km
22 Mar2025
Distance
46km
Finishers
451374 men77 women
Winning time
3:58:55h
Median pace
7.58km/h
Pace distribution
451 finishers · 4.73–11.55 km/h · mean 7.55
Every finisher ran the same 46 km course, so these paces are directly comparable.
Histogram of finisher pace. 451 finishers ranged from 4.73 to 11.55 kilometres per hour, with a mean of 7.55 and a median of 7.58. The busiest band is 7.5 to 8.0 kilometres per hour, with 106 finishers.
Results
Ranks 1–50 of 451
| Rank | Runner | Time | Pace | Cat. | Placing |
|---|---|---|---|---|---|
| 1 | Foulee Colignoise | 3:58:55h | 11.55 | M23 | 1st M · 1st M23 |
| 2 | Team Altore | 4:06:34h | 11.19 | M40 | 2nd M · 1st M40 |
| 3 | 4:08:00h | 11.13 | M23 | 3rd M · 2nd M23 | |
| 4 | 4:14:14h | 10.86 | M40 | 4th M · 2nd M40 | |
| 5 | Besancon Trail Running... | 4:15:24h | 10.81 | M23 | 5th M · 3rd M23 |
| 6 | 4:22:25h | 10.52 | M45 | 6th M · 1st M45 | |
| 7 | Team Rafletchou | 4:26:20h | 10.36 | M23 | 7th M · 4th M23 |
| 8 | ALE | 4:28:38h | 10.27 | M23 | 8th M · 5th M23 |
| 9 | STC | 4:29:21h | 10.25 | M45 | 9th M · 2nd M45 |
| 10 | 4:31:32h | 10.16 | M35 | 10th M · 1st M35 | |
| 11 | Asptt Besancon | 4:34:04h | 10.07 | W23 | 1st F · 1st W23 |
| 12 | 4:34:16h | 10.06 | M23 | 11th M · 6th M23 | |
| 13 | 4:36:04h | 10.00 | M23 | 12th M · 7th M23 | |
| 14 | 4:38:05h | 9.93 | W35 | 2nd F · 1st W35 | |
| 15 | 4:38:58h | 9.89 | M35 | 13th M · 2nd M35 | |
| 16 | 4:40:24h | 9.84 | M23 | 14th M · 8th M23 | |
| 17 | 4:44:00h | 9.72 | M45 | 15th M · 3rd M45 | |
| 18 | 4:44:41h | 9.70 | M23 | 16th M · 9th M23 | |
| 19 | EA Chambery | 4:44:45h | 9.69 | M23 | 17th M · 10th M23 |
| 20 | 4:47:51h | 9.59 | M35 | 18th M · 3rd M35 | |
| 21 | 4:47:59h | 9.58 | M23 | 19th M · 11th M23 | |
| 22 | les Passe Partout / Tr... | 4:47:59h | 9.58 | M23 | 19th M · 11th M23 |
| 23 | CAP Running Igny | 4:48:21h | 9.57 | M23 | 21st M · 13th M23 |
| 24 | 4:49:11h | 9.54 | W23 | 3rd F · 2nd W23 | |
| 25 | Croco | 4:49:57h | 9.52 | M35 | 22nd M · 4th M35 |
| 26 | Courir Ensemble | 4:49:57h | 9.52 | M35 | 22nd M · 4th M35 |
| 27 | 4:50:04h | 9.52 | M35 | 24th M · 6th M35 | |
| 28 | 4:51:34h | 9.47 | M23 | 25th M · 14th M23 | |
| 29 | Chamonix Mont-Blanc Ma... | 4:53:25h | 9.41 | M23 | 26th M · 15th M23 |
| 30 | PRO du Sport Besancon ... | 4:54:53h | 9.36 | M35 | 27th M · 7th M35 |
| 31 | 4:55:00h | 9.36 | M23 | 28th M · 16th M23 | |
| 32 | AC Talant | 4:56:19h | 9.31 | M23 | 29th M · 17th M23 |
| 33 | 4:57:26h | 9.28 | M23 | 30th M · 18th M23 | |
| 34 | 4:59:42h | 9.21 | M40 | 31st M · 3rd M40 | |
| 35 | 5:01:05h | 9.17 | M23 | 32nd M · 19th M23 | |
| 36 | 5:01:41h | 9.15 | M23 | 33rd M · 20th M23 | |
| 37 | HR Training | 5:03:55h | 9.08 | M40 | 34th M · 4th M40 |
| 38 | Ferrieres SA | 5:04:48h | 9.05 | M50 | 35th M · 1st M50 |
| 39 | 5:06:06h | 9.02 | M23 | 36th M · 21st M23 | |
| 40 | 5:07:32h | 8.97 | M23 | 37th M · 22nd M23 | |
| 41 | Trail Evasion Corbigny... | 5:08:28h | 8.95 | M35 | 38th M · 8th M35 |
| 42 | Tri Aventure | 5:08:49h | 8.94 | M55 | 39th M · 1st M55 |
| 43 | CAP Running | 5:10:04h | 8.90 | W45 | 4th F · 1st W45 |
| 44 | CAP Running Igny | 5:10:05h | 8.90 | W40 | 5th F · 1st W40 |
| 45 | Croco | 5:12:13h | 8.84 | M35 | 40th M · 9th M35 |
| 46 | 5:12:21h | 8.84 | M40 | 41st M · 5th M40 | |
| 47 | 5:12:23h | 8.84 | M45 | 42nd M · 4th M45 | |
| 48 | 5:14:13h | 8.78 | M23 | 43rd M · 23rd M23 | |
| 49 | CAP Running | 5:14:31h | 8.78 | M40 | 44th M · 6th M40 |
| 50 | CAP Running Igny | 5:14:32h | 8.78 | M55 | 45th M · 2nd M55 |
- 1Foulee Colignoise1st M · 1st M23Time3:58:55hPace11.55Cat.M23
- 2Team Altore2nd M · 1st M40Time4:06:34hPace11.19Cat.M40
- 33rd M · 2nd M23Time4:08:00hPace11.13Cat.M23
- 44th M · 2nd M40Time4:14:14hPace10.86Cat.M40
- 5Besancon Trail Running...5th M · 3rd M23Time4:15:24hPace10.81Cat.M23
- 66th M · 1st M45Time4:22:25hPace10.52Cat.M45
- 7Team Rafletchou7th M · 4th M23Time4:26:20hPace10.36Cat.M23
- 8ALE8th M · 5th M23Time4:28:38hPace10.27Cat.M23
- 9STC9th M · 2nd M45Time4:29:21hPace10.25Cat.M45
- 1010th M · 1st M35Time4:31:32hPace10.16Cat.M35
- 11Asptt Besancon1st F · 1st W23Time4:34:04hPace10.07Cat.W23
- 1211th M · 6th M23Time4:34:16hPace10.06Cat.M23
- 1312th M · 7th M23Time4:36:04hPace10.00Cat.M23
- 142nd F · 1st W35Time4:38:05hPace9.93Cat.W35
- 1513th M · 2nd M35Time4:38:58hPace9.89Cat.M35
- 1614th M · 8th M23Time4:40:24hPace9.84Cat.M23
- 1715th M · 3rd M45Time4:44:00hPace9.72Cat.M45
- 1816th M · 9th M23Time4:44:41hPace9.70Cat.M23
- 19EA Chambery17th M · 10th M23Time4:44:45hPace9.69Cat.M23
- 2018th M · 3rd M35Time4:47:51hPace9.59Cat.M35
- 2119th M · 11th M23Time4:47:59hPace9.58Cat.M23
- 22les Passe Partout / Tr...19th M · 11th M23Time4:47:59hPace9.58Cat.M23
- 23CAP Running Igny21st M · 13th M23Time4:48:21hPace9.57Cat.M23
- 243rd F · 2nd W23Time4:49:11hPace9.54Cat.W23
- 25Croco22nd M · 4th M35Time4:49:57hPace9.52Cat.M35
- 26Courir Ensemble22nd M · 4th M35Time4:49:57hPace9.52Cat.M35
- 2724th M · 6th M35Time4:50:04hPace9.52Cat.M35
- 2825th M · 14th M23Time4:51:34hPace9.47Cat.M23
- 29Chamonix Mont-Blanc Ma...26th M · 15th M23Time4:53:25hPace9.41Cat.M23
- 30PRO du Sport Besancon ...27th M · 7th M35Time4:54:53hPace9.36Cat.M35
- 3128th M · 16th M23Time4:55:00hPace9.36Cat.M23
- 32AC Talant29th M · 17th M23Time4:56:19hPace9.31Cat.M23
- 3330th M · 18th M23Time4:57:26hPace9.28Cat.M23
- 3431st M · 3rd M40Time4:59:42hPace9.21Cat.M40
- 3532nd M · 19th M23Time5:01:05hPace9.17Cat.M23
- 3633rd M · 20th M23Time5:01:41hPace9.15Cat.M23
- 37HR Training34th M · 4th M40Time5:03:55hPace9.08Cat.M40
- 38Ferrieres SA35th M · 1st M50Time5:04:48hPace9.05Cat.M50
- 3936th M · 21st M23Time5:06:06hPace9.02Cat.M23
- 4037th M · 22nd M23Time5:07:32hPace8.97Cat.M23
- 41Trail Evasion Corbigny...38th M · 8th M35Time5:08:28hPace8.95Cat.M35
- 42Tri Aventure39th M · 1st M55Time5:08:49hPace8.94Cat.M55
- 43CAP Running4th F · 1st W45Time5:10:04hPace8.90Cat.W45
- 44CAP Running Igny5th F · 1st W40Time5:10:05hPace8.90Cat.W40
- 45Croco40th M · 9th M35Time5:12:13hPace8.84Cat.M35
- 4641st M · 5th M40Time5:12:21hPace8.84Cat.M40
- 4742nd M · 4th M45Time5:12:23hPace8.84Cat.M45
- 4843rd M · 23rd M23Time5:14:13hPace8.78Cat.M23
- 49CAP Running44th M · 6th M40Time5:14:31hPace8.78Cat.M40
- 50CAP Running Igny45th M · 2nd M55Time5:14:32hPace8.78Cat.M55
Showing ranks 1–50 of 451